sensor_id;sensor_type;location;lat;lon;timestamp;temperature;humidity
72576;DHT22;60613;48.658;2.328;2023-04-12T06:12:58;20.80;40.50
72576;DHT22;60613;48.658;2.328;2023-04-12T06:15:24;20.80;41.00
72576;DHT22;60613;48.658;2.328;2023-04-12T06:17:50;20.90;40.90
72576;DHT22;60613;48.658;2.328;2023-04-12T06:20:16;20.90;40.80
72576;DHT22;60613;48.658;2.328;2023-04-12T06:22:41;20.90;40.60
72576;DHT22;60613;48.658;2.328;2023-04-12T06:25:07;21.00;40.70
72576;DHT22;60613;48.658;2.328;2023-04-12T06:27:33;21.00;40.70
72576;DHT22;60613;48.658;2.328;2023-04-12T06:29:58;20.90;40.60
72576;DHT22;60613;48.658;2.328;2023-04-12T06:32:24;21.00;40.50
72576;DHT22;60613;48.658;2.328;2023-04-12T06:34:50;21.00;40.60
72576;DHT22;60613;48.658;2.328;2023-04-12T06:37:16;21.00;40.70
72576;DHT22;60613;48.658;2.328;2023-04-12T06:39:41;21.10;40.40
72576;DHT22;60613;48.658;2.328;2023-04-12T06:42:07;21.20;40.20
72576;DHT22;60613;48.658;2.328;2023-04-12T06:44:33;21.20;40.20
72576;DHT22;60613;48.658;2.328;2023-04-12T06:46:59;21.30;40.10
72576;DHT22;60613;48.658;2.328;2023-04-12T06:49:24;21.20;40.00
72576;DHT22;60613;48.658;2.328;2023-04-12T06:51:50;21.20;40.20
72576;DHT22;60613;48.658;2.328;2023-04-12T06:54:16;21.20;40.20
72576;DHT22;60613;48.658;2.328;2023-04-12T06:56:41;21.10;40.10
72576;DHT22;60613;48.658;2.328;2023-04-12T06:59:07;21.10;40.20
72576;DHT22;60613;48.658;2.328;2023-04-12T07:01:33;21.10;40.20
72576;DHT22;60613;48.658;2.328;2023-04-12T07:03:59;20.90;39.50
72576;DHT22;60613;48.658;2.328;2023-04-12T07:06:26;20.60;39.60
72576;DHT22;60613;48.658;2.328;2023-04-12T07:08:51;20.30;40.50
72576;DHT22;60613;48.658;2.328;2023-04-12T07:11:17;20.00;41.10
72576;DHT22;60613;48.658;2.328;2023-04-12T07:13:43;19.70;41.70
72576;DHT22;60613;48.658;2.328;2023-04-12T07:16:09;19.60;42.30
72576;DHT22;60613;48.658;2.328;2023-04-12T07:18:34;19.40;42.60
72576;DHT22;60613;48.658;2.328;2023-04-12T07:21:00;19.30;42.80
72576;DHT22;60613;48.658;2.328;2023-04-12T07:23:25;19.30;43.40
72576;DHT22;60613;48.658;2.328;2023-04-12T07:25:51;19.20;43.60
72576;DHT22;60613;48.658;2.328;2023-04-12T07:28:18;19.20;43.90
72576;DHT22;60613;48.658;2.328;2023-04-12T07:30:44;19.50;44.60
72576;DHT22;60613;48.658;2.328;2023-04-12T07:33:10;19.70;44.00
72576;DHT22;60613;48.658;2.328;2023-04-12T07:35:35;20.00;43.50
72576;DHT22;60613;48.658;2.328;2023-04-12T07:38:01;20.20;42.90
72576;DHT22;60613;48.658;2.328;2023-04-12T07:40:27;20.30;42.50
72576;DHT22;60613;48.658;2.328;2023-04-12T07:42:52;20.40;42.20
72576;DHT22;60613;48.658;2.328;2023-04-12T07:45:18;20.50;42.00
72576;DHT22;60613;48.658;2.328;2023-04-12T07:47:44;20.60;41.70
72576;DHT22;60613;48.658;2.328;2023-04-12T07:50:10;20.70;41.70
72576;DHT22;60613;48.658;2.328;2023-04-12T07:52:36;20.70;41.60
72576;DHT22;60613;48.658;2.328;2023-04-12T07:55:02;20.80;41.40
72576;DHT22;60613;48.658;2.328;2023-04-12T07:57:27;20.90;41.10
72576;DHT22;60613;48.658;2.328;2023-04-12T07:59:53;20.90;40.90
72576;DHT22;60613;48.658;2.328;2023-04-12T08:02:18;21.00;40.80
72576;DHT22;60613;48.658;2.328;2023-04-12T08:04:53;21.00;40.60
72576;DHT22;60613;48.658;2.328;2023-04-12T08:07:19;20.90;40.70
72576;DHT22;60613;48.658;2.328;2023-04-12T08:09:46;20.80;40.90
72576;DHT22;60613;48.658;2.328;2023-04-12T08:12:12;20.70;41.50
72576;DHT22;60613;48.658;2.328;2023-04-12T08:14:38;20.80;41.60
72576;DHT22;60613;48.658;2.328;2023-04-12T08:17:03;20.90;41.30
72576;DHT22;60613;48.658;2.328;2023-04-12T08:19:29;21.00;40.90
72576;DHT22;60613;48.658;2.328;2023-04-12T08:21:55;21.10;40.70
72576;DHT22;60613;48.658;2.328;2023-04-12T08:24:20;21.20;40.80
72576;DHT22;60613;48.658;2.328;2023-04-12T08:26:46;21.20;40.80
72576;DHT22;60613;48.658;2.328;2023-04-12T08:29:11;21.30;40.60
72576;DHT22;60613;48.658;2.328;2023-04-12T08:31:38;21.30;40.50
72576;DHT22;60613;48.658;2.328;2023-04-12T08:34:04;21.30;40.50
72576;DHT22;60613;48.658;2.328;2023-04-12T08:36:29;21.30;40.50
72576;DHT22;60613;48.658;2.328;2023-04-12T08:38:59;21.40;40.60
72576;DHT22;60613;48.658;2.328;2023-04-12T08:41:25;21.40;40.60
72576;DHT22;60613;48.658;2.328;2023-04-12T08:43:51;21.40;40.50
72576;DHT22;60613;48.658;2.328;2023-04-12T08:46:17;21.40;40.50
72576;DHT22;60613;48.658;2.328;2023-04-12T08:48:48;21.50;40.40
72576;DHT22;60613;48.658;2.328;2023-04-12T08:51:16;21.60;40.50
72576;DHT22;60613;48.658;2.328;2023-04-12T08:53:41;21.70;40.50
72576;DHT22;60613;48.658;2.328;2023-04-12T08:56:09;21.70;40.70
72576;DHT22;60613;48.658;2.328;2023-04-12T08:58:43;21.80;41.00
72576;DHT22;60613;48.658;2.328;2023-04-12T09:01:10;21.80;40.70
72576;DHT22;60613;48.658;2.328;2023-04-12T09:03:38;21.80;40.90
72576;DHT22;60613;48.658;2.328;2023-04-12T09:06:05;21.90;41.50
72576;DHT22;60613;48.658;2.328;2023-04-12T09:08:30;21.90;41.30
72576;DHT22;60613;48.658;2.328;2023-04-12T09:10:56;21.90;41.00
72576;DHT22;60613;48.658;2.328;2023-04-12T09:13:34;21.90;41.30
72576;DHT22;60613;48.658;2.328;2023-04-12T09:16:01;21.90;41.00
72576;DHT22;60613;48.658;2.328;2023-04-12T09:18:28;21.90;41.20
72576;DHT22;60613;48.658;2.328;2023-04-12T09:21:07;21.90;42.40
72576;DHT22;60613;48.658;2.328;2023-04-12T09:23:33;21.90;41.30
72576;DHT22;60613;48.658;2.328;2023-04-12T09:26:00;22.00;40.80
72576;DHT22;60613;48.658;2.328;2023-04-12T09:28:28;21.90;41.00
72576;DHT22;60613;48.658;2.328;2023-04-12T09:30:56;22.00;40.70
72576;DHT22;60613;48.658;2.328;2023-04-12T09:33:35;22.00;40.80
72576;DHT22;60613;48.658;2.328;2023-04-12T09:36:02;22.00;40.60
72576;DHT22;60613;48.658;2.328;2023-04-12T09:38:29;22.00;40.50
72576;DHT22;60613;48.658;2.328;2023-04-12T09:40:55;22.00;40.70
72576;DHT22;60613;48.658;2.328;2023-04-12T09:43:37;22.00;41.00
72576;DHT22;60613;48.658;2.328;2023-04-12T09:46:13;21.90;41.20
72576;DHT22;60613;48.658;2.328;2023-04-12T09:48:49;21.90;41.30
72576;DHT22;60613;48.658;2.328;2023-04-12T09:51:29;21.90;41.30
72576;DHT22;60613;48.658;2.328;2023-04-12T09:53:58;22.00;41.20
72576;DHT22;60613;48.658;2.328;2023-04-12T09:56:27;22.00;42.00
72576;DHT22;60613;48.658;2.328;2023-04-12T09:58:54;22.10;40.50
72576;DHT22;60613;48.658;2.328;2023-04-12T10:01:22;22.00;40.70
72576;DHT22;60613;48.658;2.328;2023-04-12T10:03:48;22.10;41.60
72576;DHT22;60613;48.658;2.328;2023-04-12T10:06:14;22.00;41.60
72576;DHT22;60613;48.658;2.328;2023-04-12T10:08:43;22.10;41.10
72576;DHT22;60613;48.658;2.328;2023-04-12T10:11:10;22.20;40.50
72576;DHT22;60613;48.658;2.328;2023-04-12T10:13:36;22.10;40.80
72576;DHT22;60613;48.658;2.328;2023-04-12T10:16:03;22.20;41.00
72576;DHT22;60613;48.658;2.328;2023-04-12T10:18:30;22.20;40.50
72576;DHT22;60613;48.658;2.328;2023-04-12T10:21:00;22.20;40.20
72576;DHT22;60613;48.658;2.328;2023-04-12T10:23:26;22.20;40.30
72576;DHT22;60613;48.658;2.328;2023-04-12T10:25:52;22.20;41.00
72576;DHT22;60613;48.658;2.328;2023-04-12T10:28:21;22.20;41.30
72576;DHT22;60613;48.658;2.328;2023-04-12T10:30:48;22.20;41.30
72576;DHT22;60613;48.658;2.328;2023-04-12T10:33:19;22.20;41.00
72576;DHT22;60613;48.658;2.328;2023-04-12T10:35:54;22.20;40.60
72576;DHT22;60613;48.658;2.328;2023-04-12T10:38:21;22.10;40.90
72576;DHT22;60613;48.658;2.328;2023-04-12T10:41:17;22.10;40.70
72576;DHT22;60613;48.658;2.328;2023-04-12T10:46:47;22.10;41.20
72576;DHT22;60613;48.658;2.328;2023-04-12T10:49:13;22.10;42.10
72576;DHT22;60613;48.658;2.328;2023-04-12T10:56:50;22.10;41.80
72576;DHT22;60613;48.658;2.328;2023-04-12T10:59:15;22.00;42.10
72576;DHT22;60613;48.658;2.328;2023-04-12T11:02:07;22.10;42.60
72576;DHT22;60613;48.658;2.328;2023-04-12T11:04:34;22.00;43.90
72576;DHT22;60613;48.658;2.328;2023-04-12T11:07:07;21.90;42.80
72576;DHT22;60613;48.658;2.328;2023-04-12T11:14:46;22.00;44.20
72576;DHT22;60613;48.658;2.328;2023-04-12T11:22:14;22.00;44.10
72576;DHT22;60613;48.658;2.328;2023-04-12T11:24:47;22.00;43.80
72576;DHT22;60613;48.658;2.328;2023-04-12T11:27:14;22.10;42.80
72576;DHT22;60613;48.658;2.328;2023-04-12T11:29:41;22.10;43.60
72576;DHT22;60613;48.658;2.328;2023-04-12T11:32:10;22.10;42.90
72576;DHT22;60613;48.658;2.328;2023-04-12T11:34:40;22.10;42.40
72576;DHT22;60613;48.658;2.328;2023-04-12T11:37:07;22.30;41.80
72576;DHT22;60613;48.658;2.328;2023-04-12T11:39:43;22.30;41.50
72576;DHT22;60613;48.658;2.328;2023-04-12T11:42:16;22.30;41.00
72576;DHT22;60613;48.658;2.328;2023-04-12T11:44:43;22.30;40.90
72576;DHT22;60613;48.658;2.328;2023-04-12T11:47:20;22.30;41.00
72576;DHT22;60613;48.658;2.328;2023-04-12T11:49:57;22.30;40.70
72576;DHT22;60613;48.658;2.328;2023-04-12T11:52:30;22.20;41.20
72576;DHT22;60613;48.658;2.328;2023-04-12T11:55:02;22.30;41.00
72576;DHT22;60613;48.658;2.328;2023-04-12T11:57:29;22.30;41.50
72576;DHT22;60613;48.658;2.328;2023-04-12T11:59:56;22.30;41.50
72576;DHT22;60613;48.658;2.328;2023-04-12T12:02:23;22.40;41.20
72576;DHT22;60613;48.658;2.328;2023-04-12T12:04:50;22.40;40.60
72576;DHT22;60613;48.658;2.328;2023-04-12T12:07:16;22.40;40.70
72576;DHT22;60613;48.658;2.328;2023-04-12T12:09:43;22.40;41.70
72576;DHT22;60613;48.658;2.328;2023-04-12T12:12:10;22.40;41.10
72576;DHT22;60613;48.658;2.328;2023-04-12T12:14:36;22.30;39.80
72576;DHT22;60613;48.658;2.328;2023-04-12T12:17:09;22.30;39.70
72576;DHT22;60613;48.658;2.328;2023-04-12T12:19:37;22.40;39.40
72576;DHT22;60613;48.658;2.328;2023-04-12T12:22:18;22.40;39.40
72576;DHT22;60613;48.658;2.328;2023-04-12T12:27:22;22.40;39.60
72576;DHT22;60613;48.658;2.328;2023-04-12T12:29:53;22.30;39.70
72576;DHT22;60613;48.658;2.328;2023-04-12T12:32:19;22.30;39.20
72576;DHT22;60613;48.658;2.328;2023-04-12T12:34:55;22.30;39.40
72576;DHT22;60613;48.658;2.328;2023-04-12T12:37:25;22.30;39.00
72576;DHT22;60613;48.658;2.328;2023-04-12T12:40:07;22.30;39.20
72576;DHT22;60613;48.658;2.328;2023-04-12T12:42:58;22.30;39.00
72576;DHT22;60613;48.658;2.328;2023-04-12T12:45:26;22.40;38.60
72576;DHT22;60613;48.658;2.328;2023-04-12T12:47:56;22.30;38.60
72576;DHT22;60613;48.658;2.328;2023-04-12T12:50:25;22.40;38.80
72576;DHT22;60613;48.658;2.328;2023-04-12T12:52:52;22.40;38.60
72576;DHT22;60613;48.658;2.328;2023-04-12T12:55:18;22.40;38.50
72576;DHT22;60613;48.658;2.328;2023-04-12T12:57:46;22.40;38.70
72576;DHT22;60613;48.658;2.328;2023-04-12T13:00:14;22.40;38.10
72576;DHT22;60613;48.658;2.328;2023-04-12T13:02:43;22.30;38.00
72576;DHT22;60613;48.658;2.328;2023-04-12T13:05:10;22.30;37.80
72576;DHT22;60613;48.658;2.328;2023-04-12T13:07:36;22.40;37.90
72576;DHT22;60613;48.658;2.328;2023-04-12T13:10:02;22.40;38.80
72576;DHT22;60613;48.658;2.328;2023-04-12T13:12:28;22.40;38.20
72576;DHT22;60613;48.658;2.328;2023-04-12T13:14:55;22.40;37.20
72576;DHT22;60613;48.658;2.328;2023-04-12T13:17:20;22.30;37.00
72576;DHT22;60613;48.658;2.328;2023-04-12T13:19:47;22.30;37.20
72576;DHT22;60613;48.658;2.328;2023-04-12T13:22:13;22.30;37.00
72576;DHT22;60613;48.658;2.328;2023-04-12T13:24:39;22.40;37.20
72576;DHT22;60613;48.658;2.328;2023-04-12T13:27:04;22.30;36.90
72576;DHT22;60613;48.658;2.328;2023-04-12T13:29:30;22.30;36.70
72576;DHT22;60613;48.658;2.328;2023-04-12T13:31:56;22.30;36.50
72576;DHT22;60613;48.658;2.328;2023-04-12T13:34:21;22.30;36.40
72576;DHT22;60613;48.658;2.328;2023-04-12T13:36:50;22.40;36.70
72576;DHT22;60613;48.658;2.328;2023-04-12T13:39:16;22.30;36.20
72576;DHT22;60613;48.658;2.328;2023-04-12T13:41:41;22.30;36.10
72576;DHT22;60613;48.658;2.328;2023-04-12T13:44:07;22.40;36.30
72576;DHT22;60613;48.658;2.328;2023-04-12T13:46:33;22.30;36.40
72576;DHT22;60613;48.658;2.328;2023-04-12T13:48:58;22.30;36.90
72576;DHT22;60613;48.658;2.328;2023-04-12T13:51:24;22.30;36.60
72576;DHT22;60613;48.658;2.328;2023-04-12T13:53:51;22.30;36.60
72576;DHT22;60613;48.658;2.328;2023-04-12T13:56:17;22.30;36.70
72576;DHT22;60613;48.658;2.328;2023-04-12T13:58:43;22.30;36.40
72576;DHT22;60613;48.658;2.328;2023-04-12T14:01:08;22.30;36.70
72576;DHT22;60613;48.658;2.328;2023-04-12T14:03:34;22.30;36.30
72576;DHT22;60613;48.658;2.328;2023-04-12T14:06:01;22.30;36.50
72576;DHT22;60613;48.658;2.328;2023-04-12T14:08:28;22.40;36.70
72576;DHT22;60613;48.658;2.328;2023-04-12T14:10:53;22.30;36.60
72576;DHT22;60613;48.658;2.328;2023-04-12T14:13:23;22.30;36.50
72576;DHT22;60613;48.658;2.328;2023-04-12T14:15:49;22.30;36.60
72576;DHT22;60613;48.658;2.328;2023-04-12T14:18:19;22.30;36.70
72576;DHT22;60613;48.658;2.328;2023-04-12T14:20:47;22.30;36.40
72576;DHT22;60613;48.658;2.328;2023-04-12T14:23:20;22.30;36.50
72576;DHT22;60613;48.658;2.328;2023-04-12T14:25:50;22.40;36.70
72576;DHT22;60613;48.658;2.328;2023-04-12T14:28:17;22.40;36.60
72576;DHT22;60613;48.658;2.328;2023-04-12T14:30:43;22.30;36.40
72576;DHT22;60613;48.658;2.328;2023-04-12T14:33:09;22.40;36.30
72576;DHT22;60613;48.658;2.328;2023-04-12T14:35:35;22.40;36.40
72576;DHT22;60613;48.658;2.328;2023-04-12T14:38:01;22.40;36.40
72576;DHT22;60613;48.658;2.328;2023-04-12T14:40:26;22.40;36.20
72576;DHT22;60613;48.658;2.328;2023-04-12T14:42:52;22.40;36.30
72576;DHT22;60613;48.658;2.328;2023-04-12T14:45:18;22.40;36.30
72576;DHT22;60613;48.658;2.328;2023-04-12T14:47:45;22.30;36.60
72576;DHT22;60613;48.658;2.328;2023-04-12T14:50:11;22.40;36.60
72576;DHT22;60613;48.658;2.328;2023-04-12T14:52:36;22.40;36.50
72576;DHT22;60613;48.658;2.328;2023-04-12T14:55:02;22.50;36.40
72576;DHT22;60613;48.658;2.328;2023-04-12T14:57:28;22.40;37.10
72576;DHT22;60613;48.658;2.328;2023-04-12T14:59:53;22.40;38.10
72576;DHT22;60613;48.658;2.328;2023-04-12T15:02:21;22.40;37.00
72576;DHT22;60613;48.658;2.328;2023-04-12T15:04:50;22.40;37.40
72576;DHT22;60613;48.658;2.328;2023-04-12T15:07:16;22.30;37.30
72576;DHT22;60613;48.658;2.328;2023-04-12T15:09:41;22.30;37.20
72576;DHT22;60613;48.658;2.328;2023-04-12T15:12:10;22.30;37.30
72576;DHT22;60613;48.658;2.328;2023-04-12T15:14:36;22.30;37.50
72576;DHT22;60613;48.658;2.328;2023-04-12T15:17:01;22.30;37.60
72576;DHT22;60613;48.658;2.328;2023-04-12T15:19:27;22.30;37.40
72576;DHT22;60613;48.658;2.328;2023-04-12T15:21:53;22.30;37.50
72576;DHT22;60613;48.658;2.328;2023-04-12T15:24:23;22.30;37.20
72576;DHT22;60613;48.658;2.328;2023-04-12T15:26:49;22.40;38.50
72576;DHT22;60613;48.658;2.328;2023-04-12T15:29:19;22.40;37.50
72576;DHT22;60613;48.658;2.328;2023-04-12T15:31:46;22.30;37.60
72576;DHT22;60613;48.658;2.328;2023-04-12T15:34:12;22.30;37.30
72576;DHT22;60613;48.658;2.328;2023-04-12T15:36:38;22.30;37.20
72576;DHT22;60613;48.658;2.328;2023-04-12T15:39:10;22.30;37.20
72576;DHT22;60613;48.658;2.328;2023-04-12T15:41:39;22.30;37.40
72576;DHT22;60613;48.658;2.328;2023-04-12T15:44:07;22.40;36.90
72576;DHT22;60613;48.658;2.328;2023-04-12T15:46:34;22.40;37.00
72576;DHT22;60613;48.658;2.328;2023-04-12T15:49:00;22.30;37.30
72576;DHT22;60613;48.658;2.328;2023-04-12T15:51:27;22.40;37.20
72576;DHT22;60613;48.658;2.328;2023-04-12T15:53:53;22.40;37.00
72576;DHT22;60613;48.658;2.328;2023-04-12T15:56:19;22.40;37.50
72576;DHT22;60613;48.658;2.328;2023-04-12T15:58:49;22.40;37.50
72576;DHT22;60613;48.658;2.328;2023-04-12T16:01:15;22.50;38.30
72576;DHT22;60613;48.658;2.328;2023-04-12T16:03:41;22.50;37.00
72576;DHT22;60613;48.658;2.328;2023-04-12T16:06:11;22.40;37.00
72576;DHT22;60613;48.658;2.328;2023-04-12T16:08:50;22.40;36.70
72576;DHT22;60613;48.658;2.328;2023-04-12T16:11:21;22.40;36.90
72576;DHT22;60613;48.658;2.328;2023-04-12T16:13:48;22.40;37.90
72576;DHT22;60613;48.658;2.328;2023-04-12T16:16:16;22.40;36.70
72576;DHT22;60613;48.658;2.328;2023-04-12T16:18:43;22.40;36.60
72576;DHT22;60613;48.658;2.328;2023-04-12T16:21:11;22.50;36.90
72576;DHT22;60613;48.658;2.328;2023-04-12T16:23:37;22.50;36.40
72576;DHT22;60613;48.658;2.328;2023-04-12T16:26:04;22.50;36.30
72576;DHT22;60613;48.658;2.328;2023-04-12T16:31:01;22.50;36.50
72576;DHT22;60613;48.658;2.328;2023-04-12T16:33:26;22.50;36.60
72576;DHT22;60613;48.658;2.328;2023-04-12T16:35:52;22.50;36.80
72576;DHT22;60613;48.658;2.328;2023-04-12T16:38:17;22.50;36.90
72576;DHT22;60613;48.658;2.328;2023-04-12T16:40:43;22.50;36.70
72576;DHT22;60613;48.658;2.328;2023-04-12T16:43:09;22.50;36.90
72576;DHT22;60613;48.658;2.328;2023-04-12T16:45:34;22.50;37.10
72576;DHT22;60613;48.658;2.328;2023-04-12T16:48:00;22.50;38.00
72576;DHT22;60613;48.658;2.328;2023-04-12T16:50:26;22.60;36.80
72576;DHT22;60613;48.658;2.328;2023-04-12T16:52:52;22.50;36.90
72576;DHT22;60613;48.658;2.328;2023-04-12T16:55:17;22.50;37.00
72576;DHT22;60613;48.658;2.328;2023-04-12T16:57:43;22.50;38.40
72576;DHT22;60613;48.658;2.328;2023-04-12T17:00:11;22.50;37.50
72576;DHT22;60613;48.658;2.328;2023-04-12T17:02:51;22.40;38.30
72576;DHT22;60613;48.658;2.328;2023-04-12T17:05:18;22.50;38.50
72576;DHT22;60613;48.658;2.328;2023-04-12T17:07:45;22.50;38.30
72576;DHT22;60613;48.658;2.328;2023-04-12T17:10:15;22.50;38.50
72576;DHT22;60613;48.658;2.328;2023-04-12T17:12:45;22.50;38.70
72576;DHT22;60613;48.658;2.328;2023-04-12T17:15:12;22.50;39.60
72576;DHT22;60613;48.658;2.328;2023-04-12T17:17:48;22.50;40.60
72576;DHT22;60613;48.658;2.328;2023-04-12T17:20:19;22.50;40.80
72576;DHT22;60613;48.658;2.328;2023-04-12T17:22:45;22.50;40.90
72576;DHT22;60613;48.658;2.328;2023-04-12T17:25:12;22.50;39.70
72576;DHT22;60613;48.658;2.328;2023-04-12T17:27:39;22.50;39.80
72576;DHT22;60613;48.658;2.328;2023-04-12T17:30:08;22.40;39.40
72576;DHT22;60613;48.658;2.328;2023-04-12T17:32:35;22.40;39.00
72576;DHT22;60613;48.658;2.328;2023-04-12T17:35:02;22.30;39.00
72576;DHT22;60613;48.658;2.328;2023-04-12T17:37:28;22.30;39.00
72576;DHT22;60613;48.658;2.328;2023-04-12T17:39:54;22.30;38.70
72576;DHT22;60613;48.658;2.328;2023-04-12T17:42:20;22.40;38.60
72576;DHT22;60613;48.658;2.328;2023-04-12T17:44:47;22.40;38.50
72576;DHT22;60613;48.658;2.328;2023-04-12T17:47:13;22.40;38.70
72576;DHT22;60613;48.658;2.328;2023-04-12T17:49:40;22.40;38.80
72576;DHT22;60613;48.658;2.328;2023-04-12T17:52:06;22.50;38.80
72576;DHT22;60613;48.658;2.328;2023-04-12T17:54:34;22.50;38.80
72576;DHT22;60613;48.658;2.328;2023-04-12T17:57:00;22.50;38.90
72576;DHT22;60613;48.658;2.328;2023-04-12T17:59:27;22.50;38.70
72576;DHT22;60613;48.658;2.328;2023-04-12T18:01:53;22.40;38.70
72576;DHT22;60613;48.658;2.328;2023-04-12T18:04:18;22.50;38.50
72576;DHT22;60613;48.658;2.328;2023-04-12T18:06:44;22.40;38.40
72576;DHT22;60613;48.658;2.328;2023-04-12T18:09:10;22.40;38.30
72576;DHT22;60613;48.658;2.328;2023-04-12T18:11:36;22.40;38.30
72576;DHT22;60613;48.658;2.328;2023-04-12T18:14:10;22.50;38.10
72576;DHT22;60613;48.658;2.328;2023-04-12T18:16:37;22.50;38.10
72576;DHT22;60613;48.658;2.328;2023-04-12T18:19:04;22.50;38.00
72576;DHT22;60613;48.658;2.328;2023-04-12T18:21:30;22.50;39.10
72576;DHT22;60613;48.658;2.328;2023-04-12T18:24:00;22.50;38.00
72576;DHT22;60613;48.658;2.328;2023-04-12T18:26:26;22.60;38.10
72576;DHT22;60613;48.658;2.328;2023-04-12T18:28:52;22.60;38.20
72576;DHT22;60613;48.658;2.328;2023-04-12T18:31:18;22.60;38.10
72576;DHT22;60613;48.658;2.328;2023-04-12T18:33:45;22.50;38.40
72576;DHT22;60613;48.658;2.328;2023-04-12T18:36:11;22.50;38.40
72576;DHT22;60613;48.658;2.328;2023-04-12T18:38:36;22.50;38.50
72576;DHT22;60613;48.658;2.328;2023-04-12T18:41:03;22.50;38.30
72576;DHT22;60613;48.658;2.328;2023-04-12T18:43:30;22.40;38.40
72576;DHT22;60613;48.658;2.328;2023-04-12T18:45:56;22.30;38.50
72576;DHT22;60613;48.658;2.328;2023-04-12T18:48:22;22.30;38.60
72576;DHT22;60613;48.658;2.328;2023-04-12T18:50:48;22.30;38.50
72576;DHT22;60613;48.658;2.328;2023-04-12T18:53:16;22.20;38.40
72576;DHT22;60613;48.658;2.328;2023-04-12T18:55:46;22.20;38.50
72576;DHT22;60613;48.658;2.328;2023-04-12T18:58:12;22.20;38.30
